Time;durP1;ratioP1;P1;durP2;ratioP2;P2;SDS_P1;SDS_P2;PMS_P1;PMS_P2;Temp;Humidity;BMP_temperature;BMP_pressure;BME280_temperature;BME280_humidity;BME280_pressure;Samples;Min_cycle;Max_cycle;Signal;HPM_P1;HPM_P2
2024/03/06 00:00:50;;;;;;;22.20;15.90;;;;;22.60;100634.00;;;;2045136;28;21071;-64
2024/03/06 00:01:51;;;;;;;21.37;14.67;;;;;22.60;100633.00;;;;2041706;28;20810;-58
2024/03/06 00:02:51;;;;;;;21.70;14.60;;;;;22.60;100618.00;;;;2057910;28;20743;-60
2024/03/06 00:03:51;;;;;;;21.90;15.20;;;;;22.60;100625.00;;;;2028652;28;20296;-60
2024/03/06 00:04:54;;;;;;;18.17;13.98;;;;;22.60;100624.00;;;;2048664;28;20724;-59
2024/03/06 00:05:54;;;;;;;23.15;15.32;;;;;22.60;100627.00;;;;2057922;28;20343;-59
2024/03/06 00:06:55;;;;;;;20.70;15.27;;;;;22.60;100636.00;;;;2046498;28;20726;-60
2024/03/06 00:07:57;;;;;;;17.98;14.13;;;;;22.60;100627.00;;;;2052369;28;20293;-60
2024/03/06 00:08:58;;;;;;;17.65;14.05;;;;;22.60;100639.00;;;;2039426;28;20231;-60
2024/03/06 00:09:58;;;;;;;18.13;13.23;;;;;22.60;100661.00;;;;2049524;28;20226;-59
2024/03/06 00:10:58;;;;;;;20.57;14.00;;;;;22.60;100640.00;;;;2044706;28;20243;-59
2024/03/06 00:11:59;;;;;;;18.70;13.80;;;;;22.60;100641.00;;;;2048920;28;20224;-59
2024/03/06 00:13:00;;;;;;;19.47;14.13;;;;;22.50;100650.00;;;;2044770;28;20623;-58
2024/03/06 00:14:00;;;;;;;21.03;14.50;;;;;22.50;100644.00;;;;2042653;28;20478;-59
2024/03/06 00:15:02;;;;;;;21.13;14.03;;;;;22.50;100644.00;;;;2059342;28;20269;-59
2024/03/06 00:16:02;;;;;;;17.85;12.57;;;;;22.50;100646.00;;;;2050498;28;20251;-59
2024/03/06 00:17:04;;;;;;;22.30;14.43;;;;;22.50;100611.00;;;;2052238;28;20234;-59
2024/03/06 00:18:05;;;;;;;18.75;13.85;;;;;22.50;100646.00;;;;2052735;28;20211;-60
2024/03/06 00:19:05;;;;;;;16.87;12.17;;;;;22.50;100653.00;;;;2042850;28;20216;-60
2024/03/06 00:20:08;;;;;;;16.57;13.13;;;;;22.50;100640.00;;;;2044303;28;20213;-59
2024/03/06 00:21:09;;;;;;;20.52;12.88;;;;;22.50;100653.00;;;;2052048;28;20220;-60
2024/03/06 00:22:09;;;;;;;16.60;12.52;;;;;22.50;100642.00;;;;2060222;28;20208;-59
2024/03/06 00:23:10;;;;;;;17.13;12.47;;;;;22.50;100649.00;;;;2055693;28;20227;-59
2024/03/06 00:24:14;;;;;;;18.47;13.27;;;;;22.50;100648.00;;;;2047949;28;20215;-59
2024/03/06 00:25:14;;;;;;;17.25;13.00;;;;;22.50;100647.00;;;;2045010;28;20279;-59
2024/03/06 00:26:15;;;;;;;16.50;12.30;;;;;22.50;100645.00;;;;2056924;28;20766;-60
2024/03/06 00:27:15;;;;;;;18.20;13.17;;;;;22.50;100655.00;;;;2059299;28;20258;-59
2024/03/06 00:28:15;;;;;;;15.43;12.07;;;;;22.50;100649.00;;;;2054446;28;20996;-59
2024/03/06 00:29:16;;;;;;;16.10;11.17;;;;;22.50;100655.00;;;;2028426;29;20716;-59
2024/03/06 00:30:16;;;;;;;19.47;11.70;;;;;22.50;100658.00;;;;2046019;28;20236;-59
2024/03/06 00:31:18;;;;;;;16.57;11.47;;;;;22.50;100655.00;;;;2053749;28;20921;-59
2024/03/06 00:32:18;;;;;;;15.70;11.30;;;;;22.50;100665.00;;;;2054034;28;20258;-59
2024/03/06 00:33:18;;;;;;;15.43;12.37;;;;;22.50;100667.00;;;;2056312;28;20321;-59
2024/03/06 00:34:19;;;;;;;17.13;11.87;;;;;22.50;100664.00;;;;2052370;28;20211;-59
2024/03/06 00:35:20;;;;;;;15.07;12.07;;;;;22.40;100665.00;;;;2056664;28;20223;-59
2024/03/06 00:36:26;;;;;;;18.27;12.70;;;;;22.40;100669.00;;;;2060293;28;20285;-59
2024/03/06 00:37:26;;;;;;;17.40;11.90;;;;;22.40;100671.00;;;;2045599;28;20216;-59
2024/03/06 00:38:26;;;;;;;16.23;11.43;;;;;22.40;100670.00;;;;2049617;28;20215;-60
2024/03/06 00:39:27;;;;;;;15.77;10.43;;;;;22.40;100672.00;;;;2045542;28;20216;-60
2024/03/06 00:40:27;;;;;;;15.40;11.20;;;;;22.40;100675.00;;;;2053112;28;20263;-59
2024/03/06 00:41:28;;;;;;;17.20;11.43;;;;;22.40;100675.00;;;;2052955;28;20214;-59
2024/03/06 00:42:28;;;;;;;14.60;10.63;;;;;22.40;100682.00;;;;2042759;28;20220;-59
2024/03/06 00:43:28;;;;;;;15.20;11.50;;;;;22.40;100677.00;;;;2050657;28;20232;-60
2024/03/06 00:44:30;;;;;;;14.40;11.60;;;;;22.40;100673.00;;;;2041493;28;20235;-60
2024/03/06 00:45:30;;;;;;;15.50;10.70;;;;;22.40;100682.00;;;;2057289;28;20838;-59
2024/03/06 00:46:30;;;;;;;15.23;11.30;;;;;22.40;100679.00;;;;2047257;28;20240;-59
2024/03/06 00:47:31;;;;;;;14.57;10.70;;;;;22.40;100686.00;;;;2047576;28;20213;-60
2024/03/06 00:48:31;;;;;;;13.57;10.33;;;;;22.40;100682.00;;;;2042316;28;20259;-59
2024/03/06 00:49:32;;;;;;;15.77;11.00;;;;;22.40;100677.00;;;;2053453;28;20291;-59
2024/03/06 00:50:32;;;;;;;12.90;10.33;;;;;22.40;100680.00;;;;2054514;28;20246;-59
2024/03/06 00:51:36;;;;;;;14.40;10.57;;;;;22.40;100683.00;;;;2050878;28;20208;-59
2024/03/06 00:52:36;;;;;;;13.52;10.05;;;;;22.40;100681.00;;;;2054157;28;20220;-59
2024/03/06 00:53:36;;;;;;;14.23;10.13;;;;;22.40;100684.00;;;;2043949;28;20212;-59
2024/03/06 00:54:37;;;;;;;12.80;9.90;;;;;22.40;100684.00;;;;2054351;28;20272;-59
2024/03/06 00:55:37;;;;;;;14.40;10.37;;;;;22.40;100684.00;;;;2056220;28;20281;-59
2024/03/06 00:56:38;;;;;;;14.23;9.93;;;;;22.40;100686.00;;;;2048938;28;20212;-59
2024/03/06 00:57:39;;;;;;;14.60;10.68;;;;;22.40;100685.00;;;;2065139;28;20296;-60
2024/03/06 00:58:40;;;;;;;12.43;9.43;;;;;21.70;100688.00;;;;2042907;28;20298;-60
2024/03/06 00:59:40;;;;;;;13.53;9.60;;;;;22.30;100685.00;;;;2054087;28;20642;-61
2024/03/06 01:00:41;;;;;;;13.13;9.50;;;;;22.30;100672.00;;;;2060044;28;20237;-60
2024/03/06 01:01:42;;;;;;;13.87;10.10;;;;;22.40;100688.00;;;;2039136;28;20732;-60
2024/03/06 01:02:44;;;;;;;12.67;9.77;;;;;22.30;100682.00;;;;2043976;28;20755;-61
2024/03/06 01:03:45;;;;;;;12.57;8.93;;;;;22.30;100719.00;;;;2041198;28;20238;-59
2024/03/06 01:04:45;;;;;;;9.70;7.77;;;;;22.30;100693.00;;;;2042884;28;20670;-59
2024/03/06 01:05:46;;;;;;;13.23;9.37;;;;;22.30;100692.00;;;;2052858;28;20219;-59
2024/03/06 01:06:47;;;;;;;12.20;8.80;;;;;22.30;100692.00;;;;2052574;28;20302;-59
2024/03/06 01:07:48;;;;;;;10.77;8.27;;;;;22.30;100695.00;;;;2052661;28;20216;-59
2024/03/06 01:08:48;;;;;;;12.00;8.50;;;;;22.30;100696.00;;;;2040340;28;20223;-59
2024/03/06 01:09:49;;;;;;;12.53;9.27;;;;;22.30;100708.00;;;;2045206;28;20245;-57
2024/03/06 01:10:50;;;;;;;10.73;9.10;;;;;22.30;100698.00;;;;2056199;28;20332;-58
2024/03/06 01:11:50;;;;;;;13.38;9.52;;;;;22.30;100702.00;;;;2051791;28;20223;-59
2024/03/06 01:12:52;;;;;;;11.03;8.50;;;;;21.80;100696.00;;;;2043834;28;20220;-59
2024/03/06 01:13:52;;;;;;;14.05;9.13;;;;;22.30;100682.00;;;;2024373;28;20236;-60
2024/03/06 01:14:55;;;;;;;12.50;9.30;;;;;22.30;100688.00;;;;2042299;28;20307;-60
2024/03/06 01:15:55;;;;;;;12.82;9.05;;;;;22.30;100708.00;;;;2044340;28;20240;-60
2024/03/06 01:16:59;;;;;;;8.87;7.03;;;;;22.30;100707.00;;;;2051403;28;20212;-59
2024/03/06 01:18:00;;;;;;;10.63;7.90;;;;;22.30;100704.00;;;;2036150;28;20221;-59
2024/03/06 01:19:00;;;;;;;11.97;8.30;;;;;22.30;100704.00;;;;2034593;28;20216;-60
2024/03/06 01:20:01;;;;;;;11.63;8.83;;;;;22.20;100706.00;;;;2050515;28;20223;-60
2024/03/06 01:21:02;;;;;;;11.53;8.33;;;;;22.30;100697.00;;;;2044274;28;20272;-60
2024/03/06 01:22:02;;;;;;;10.55;8.07;;;;;22.30;100715.00;;;;2050982;28;20212;-60
2024/03/06 01:23:04;;;;;;;11.07;8.77;;;;;22.30;100711.00;;;;2052042;28;20216;-59
2024/03/06 01:24:05;;;;;;;10.27;7.70;;;;;22.20;100711.00;;;;2045555;28;20702;-60
2024/03/06 01:25:07;;;;;;;11.20;8.20;;;;;22.30;100714.00;;;;2050331;28;20216;-59
2024/03/06 01:26:07;;;;;;;11.68;8.20;;;;;22.20;100709.00;;;;2048475;28;20212;-59
2024/03/06 01:27:08;;;;;;;10.13;7.00;;;;;22.20;100715.00;;;;2055137;28;20215;-60
2024/03/06 01:28:08;;;;;;;10.87;8.07;;;;;22.20;100704.00;;;;2056288;28;20325;-60
2024/03/06 01:29:08;;;;;;;11.57;8.20;;;;;22.20;100718.00;;;;2041519;28;20338;-60
2024/03/06 01:30:09;;;;;;;11.53;8.60;;;;;22.20;100709.00;;;;2050714;28;20216;-60
2024/03/06 01:31:10;;;;;;;11.30;8.20;;;;;22.20;100726.00;;;;2048340;28;20203;-60
2024/03/06 01:32:13;;;;;;;10.95;8.10;;;;;22.20;100710.00;;;;2050387;28;20683;-60
2024/03/06 01:33:13;;;;;;;8.80;7.05;;;;;22.20;100733.00;;;;2043158;28;20208;-59
2024/03/06 01:34:13;;;;;;;10.73;7.30;;;;;22.20;100717.00;;;;2033397;29;20756;-60
2024/03/06 01:35:14;;;;;;;10.17;7.47;;;;;22.20;100797.00;;;;2055959;28;20227;-59
2024/03/06 01:36:14;;;;;;;10.07;7.60;;;;;22.20;100726.00;;;;2064338;28;25694;-59
2024/03/06 01:37:16;;;;;;;9.80;7.17;;;;;22.20;100717.00;;;;2067849;28;20781;-60
2024/03/06 01:38:17;;;;;;;10.02;7.70;;;;;22.20;100720.00;;;;2056075;28;20367;-60
2024/03/06 01:39:17;;;;;;;10.90;6.60;;;;;22.20;100722.00;;;;2047082;28;20222;-60
2024/03/06 01:40:18;;;;;;;8.73;7.23;;;;;22.20;100718.00;;;;2060262;28;20218;-59
2024/03/06 01:41:18;;;;;;;9.87;7.47;;;;;22.20;100716.00;;;;2056555;28;20631;-59
2024/03/06 01:42:19;;;;;;;8.87;7.07;;;;;22.20;100715.00;;;;2046755;28;20242;-60
2024/03/06 01:43:20;;;;;;;10.80;7.47;;;;;22.20;100722.00;;;;2039264;28;20224;-60
2024/03/06 01:44:21;;;;;;;9.65;6.60;;;;;22.20;100706.00;;;;2033790;28;20455;-60
2024/03/06 01:45:22;;;;;;;8.90;6.87;;;;;22.20;100715.00;;;;2041399;28;20635;-60
2024/03/06 01:46:22;;;;;;;8.60;6.50;;;;;22.20;100719.00;;;;2048592;28;20287;-59
2024/03/06 01:47:23;;;;;;;9.47;6.67;;;;;22.20;100721.00;;;;2054388;28;20211;-59
2024/03/06 01:48:25;;;;;;;9.60;7.20;;;;;22.10;100716.00;;;;2054499;28;20223;-60
2024/03/06 01:49:27;;;;;;;8.13;6.32;;;;;22.20;100715.00;;;;2031377;28;20222;-60
2024/03/06 01:50:28;;;;;;;7.80;5.60;;;;;22.20;100711.00;;;;2054965;28;20334;-60
2024/03/06 01:51:28;;;;;;;10.30;6.75;;;;;22.10;100714.00;;;;2059703;28;20233;-60
2024/03/06 01:52:29;;;;;;;8.40;6.60;;;;;22.10;100707.00;;;;2057402;28;20215;-60
2024/03/06 01:53:30;;;;;;;10.03;6.93;;;;;22.10;100713.00;;;;2043676;28;20216;-60
2024/03/06 01:54:31;;;;;;;8.80;6.28;;;;;22.20;100711.00;;;;2030559;28;20220;-60
2024/03/06 01:55:32;;;;;;;8.68;6.57;;;;;22.10;100701.00;;;;2039231;28;20232;-60
2024/03/06 01:56:33;;;;;;;9.53;6.33;;;;;22.10;100717.00;;;;2036073;29;20263;-59
2024/03/06 01:57:34;;;;;;;7.80;5.63;;;;;22.10;100712.00;;;;2035732;28;20220;-59
2024/03/06 01:58:34;;;;;;;8.60;6.27;;;;;22.10;100717.00;;;;2033804;28;20308;-60
2024/03/06 01:59:35;;;;;;;7.73;5.80;;;;;22.10;100675.00;;;;2051610;28;20252;-60
2024/03/06 02:00:35;;;;;;;9.00;6.20;;;;;22.20;100712.00;;;;2050802;28;20247;-60
2024/03/06 02:01:35;;;;;;;8.27;5.80;;;;;22.10;100713.00;;;;2051507;28;20282;-60
2024/03/06 02:02:37;;;;;;;10.70;6.33;;;;;22.10;100717.00;;;;2049269;28;20212;-60
2024/03/06 02:03:37;;;;;;;8.70;5.90;;;;;22.10;100710.00;;;;2033298;28;20663;-59
2024/03/06 02:04:38;;;;;;;6.93;5.40;;;;;22.10;100772.00;;;;2053807;28;20230;-59
2024/03/06 02:05:38;;;;;;;7.87;5.87;;;;;22.10;100720.00;;;;2058095;28;20227;-60
2024/03/06 02:06:39;;;;;;;9.17;5.97;;;;;22.10;100719.00;;;;2050786;28;20243;-60
2024/03/06 02:07:42;;;;;;;8.55;5.75;;;;;22.10;100726.00;;;;2060981;28;20714;-60
2024/03/06 02:08:43;;;;;;;9.52;6.35;;;;;22.10;100717.00;;;;2050532;28;20218;-60
2024/03/06 02:09:43;;;;;;;6.97;5.10;;;;;22.10;100719.00;;;;2053628;28;20254;-59
2024/03/06 02:10:46;;;;;;;7.30;5.80;;;;;22.10;100717.00;;;;2048822;28;20223;-59
2024/03/06 02:11:47;;;;;;;6.85;5.20;;;;;22.10;100736.00;;;;2051245;28;20216;-60
2024/03/06 02:12:48;;;;;;;8.53;5.60;;;;;22.10;100710.00;;;;2060554;28;20231;-60
2024/03/06 02:13:49;;;;;;;9.15;5.80;;;;;22.10;100715.00;;;;2049303;28;20230;-60
2024/03/06 02:14:49;;;;;;;8.20;5.40;;;;;22.10;100721.00;;;;2059325;28;20227;-60
2024/03/06 02:15:50;;;;;;;9.10;5.60;;;;;22.10;100710.00;;;;2064701;28;20230;-59
2024/03/06 02:16:52;;;;;;;6.80;5.37;;;;;22.10;100713.00;;;;2067402;28;20244;-59
2024/03/06 02:17:53;;;;;;;9.05;5.50;;;;;22.00;100719.00;;;;2052107;28;20632;-60
2024/03/06 02:18:54;;;;;;;8.03;4.77;;;;;22.00;100712.00;;;;2044827;28;20239;-60
2024/03/06 02:19:55;;;;;;;7.32;5.03;;;;;22.00;100719.00;;;;2060457;28;20550;-60
2024/03/06 02:20:56;;;;;;;6.83;5.37;;;;;22.00;100716.00;;;;2059911;28;20229;-63
2024/03/06 02:21:56;;;;;;;7.40;5.20;;;;;22.00;100656.00;;;;2056771;28;20485;-61
2024/03/06 02:22:56;;;;;;;8.33;5.80;;;;;22.00;100717.00;;;;2051837;28;20307;-60
2024/03/06 02:23:58;;;;;;;7.13;5.37;;;;;22.00;100654.00;;;;2041801;28;20235;-60
2024/03/06 02:24:58;;;;;;;6.75;5.20;;;;;22.00;100720.00;;;;2050202;28;20262;-60
2024/03/06 02:25:58;;;;;;;6.87;4.93;;;;;22.00;100718.00;;;;2051693;28;20322;-60
2024/03/06 02:27:00;;;;;;;7.23;4.93;;;;;22.00;100722.00;;;;2058935;28;20278;-60
2024/03/06 02:28:00;;;;;;;5.90;4.70;;;;;22.00;100714.00;;;;2041837;28;20226;-59
2024/03/06 02:29:01;;;;;;;6.43;4.73;;;;;22.00;100706.00;;;;2051001;28;20219;-60
2024/03/06 02:30:01;;;;;;;7.20;5.40;;;;;22.00;100710.00;;;;2051123;28;20219;-60
2024/03/06 02:31:02;;;;;;;5.93;4.47;;;;;22.00;100718.00;;;;2051223;28;20262;-60
2024/03/06 02:32:04;;;;;;;6.63;4.90;;;;;22.00;100712.00;;;;2042638;28;20211;-60
2024/03/06 02:33:06;;;;;;;5.90;4.75;;;;;22.00;100714.00;;;;2052645;28;20211;-59
2024/03/06 02:34:06;;;;;;;6.53;5.07;;;;;22.00;100710.00;;;;2047353;28;20223;-59
2024/03/06 02:35:10;;;;;;;6.70;5.00;;;;;21.30;100714.00;;;;2057932;28;20238;-60
2024/03/06 02:36:14;;;;;;;5.50;4.32;;;;;22.00;100684.00;;;;2056793;28;20233;-60
2024/03/06 02:37:16;;;;;;;6.57;5.00;;;;;22.00;100713.00;;;;2044863;28;20220;-60
2024/03/06 02:38:16;;;;;;;7.57;4.60;;;;;22.00;100715.00;;;;2035436;28;20224;-60
2024/03/06 02:39:17;;;;;;;5.80;4.20;;;;;22.00;100716.00;;;;2035418;28;20220;-59
2024/03/06 02:40:21;;;;;;;5.23;4.30;;;;;22.00;100709.00;;;;2049574;28;20714;-60
2024/03/06 02:41:21;;;;;;;6.72;4.63;;;;;21.90;100716.00;;;;2044813;28;20232;-59
2024/03/06 02:42:21;;;;;;;5.37;4.17;;;;;22.00;100719.00;;;;2046379;28;20228;-59
2024/03/06 02:43:23;;;;;;;6.03;4.50;;;;;22.00;100715.00;;;;2062096;28;20556;-60
2024/03/06 02:44:23;;;;;;;6.70;4.45;;;;;22.00;100712.00;;;;2043354;28;20230;-59
2024/03/06 02:45:24;;;;;;;5.90;4.90;;;;;22.00;100721.00;;;;2043647;28;20707;-61
2024/03/06 02:46:24;;;;;;;6.03;4.50;;;;;21.90;100721.00;;;;2053068;28;20671;-60
2024/03/06 02:47:25;;;;;;;6.60;4.40;;;;;21.90;100718.00;;;;2061228;28;20216;-60
2024/03/06 02:48:25;;;;;;;5.90;4.80;;;;;22.00;100723.00;;;;2065251;28;20313;-60
2024/03/06 02:49:25;;;;;;;5.87;4.20;;;;;21.90;100720.00;;;;2051921;28;20607;-61
2024/03/06 02:50:26;;;;;;;5.23;4.00;;;;;22.00;100719.00;;;;2056827;28;20697;-64
2024/03/06 02:51:26;;;;;;;5.87;4.17;;;;;21.90;100710.00;;;;2052904;28;20695;-61
2024/03/06 02:52:26;;;;;;;5.37;4.00;;;;;21.90;100717.00;;;;2053334;28;20207;-60
2024/03/06 02:53:28;;;;;;;6.23;3.80;;;;;21.90;100716.00;;;;2058995;28;20218;-60
2024/03/06 02:54:28;;;;;;;5.88;4.38;;;;;21.90;100716.00;;;;2047253;28;20210;-59
2024/03/06 02:55:28;;;;;;;4.60;3.70;;;;;21.90;100705.00;;;;2064259;28;20222;-59
2024/03/06 02:56:28;;;;;;;5.33;4.03;;;;;21.90;100715.00;;;;2065194;28;20272;-60
2024/03/06 02:57:29;;;;;;;5.57;4.20;;;;;22.00;100725.00;;;;2049935;28;20226;-60
2024/03/06 02:58:31;;;;;;;5.40;3.97;;;;;22.00;100715.00;;;;2049827;28;20219;-59
2024/03/06 02:59:36;;;;;;;5.72;3.85;;;;;21.90;100680.00;;;;2058027;28;20223;-60
2024/03/06 03:00:39;;;;;;;4.78;3.55;;;;;21.90;100723.00;;;;2056369;28;20871;-60
2024/03/06 03:01:40;;;;;;;5.43;3.65;;;;;21.90;100756.00;;;;2045024;28;20223;-59
2024/03/06 03:02:41;;;;;;;5.83;4.00;;;;;21.90;100723.00;;;;2045069;28;20728;-60
2024/03/06 03:03:42;;;;;;;5.83;3.90;;;;;22.00;100718.00;;;;2051736;28;20219;-60
2024/03/06 03:04:43;;;;;;;4.95;3.63;;;;;21.90;100726.00;;;;2062689;28;20469;-60
2024/03/06 03:05:44;;;;;;;5.63;4.10;;;;;21.90;100726.00;;;;2063664;28;20253;-60
2024/03/06 03:06:44;;;;;;;4.70;3.50;;;;;21.90;100720.00;;;;2061981;28;20219;-60
2024/03/06 03:07:44;;;;;;;5.40;3.80;;;;;21.90;100726.00;;;;2053278;28;20224;-59
2024/03/06 03:08:45;;;;;;;4.93;3.97;;;;;21.90;100767.00;;;;2040752;28;20778;-60
2024/03/06 03:09:45;;;;;;;5.07;3.80;;;;;21.90;100724.00;;;;2054104;28;20729;-59
2024/03/06 03:10:46;;;;;;;6.50;3.73;;;;;21.90;100726.00;;;;2054764;28;24424;-60
2024/03/06 03:11:46;;;;;;;4.07;3.37;;;;;21.90;100728.00;;;;2042956;28;20224;-60
2024/03/06 03:12:46;;;;;;;4.40;3.20;;;;;21.90;100731.00;;;;2061633;28;20589;-60
2024/03/06 03:13:47;;;;;;;4.50;3.10;;;;;21.90;100745.00;;;;2051799;28;20753;-59
2024/03/06 03:14:47;;;;;;;4.77;3.20;;;;;21.90;100738.00;;;;2065966;28;20210;-59
2024/03/06 03:15:48;;;;;;;4.90;3.30;;;;;21.80;100733.00;;;;2046537;28;20252;-59
2024/03/06 03:16:48;;;;;;;5.23;3.67;;;;;21.90;100726.00;;;;2059296;28;20305;-59
2024/03/06 03:17:48;;;;;;;5.47;3.33;;;;;21.90;100730.00;;;;2061335;28;20625;-59
2024/03/06 03:18:49;;;;;;;5.20;3.73;;;;;21.80;100724.00;;;;2053248;28;20234;-59
2024/03/06 03:19:49;;;;;;;5.10;3.43;;;;;21.90;100738.00;;;;2053095;28;20223;-59
2024/03/06 03:20:49;;;;;;;6.93;3.90;;;;;21.90;100729.00;;;;2043300;28;20223;-60
2024/03/06 03:21:50;;;;;;;4.57;3.20;;;;;21.90;100764.00;;;;2051922;28;20219;-59
2024/03/06 03:22:50;;;;;;;4.87;3.50;;;;;21.90;100728.00;;;;2069132;28;20218;-60
2024/03/06 03:23:52;;;;;;;5.07;3.40;;;;;21.90;100626.00;;;;2050151;28;20220;-59
2024/03/06 03:24:54;;;;;;;3.85;2.90;;;;;21.90;100733.00;;;;2048927;28;20227;-59
2024/03/06 03:25:54;;;;;;;4.60;3.22;;;;;21.80;100835.00;;;;2051456;28;20243;-59
2024/03/06 03:26:55;;;;;;;4.30;3.07;;;;;21.80;100731.00;;;;2058214;28;20594;-59
2024/03/06 03:27:56;;;;;;;4.30;2.93;;;;;21.90;100725.00;;;;2068422;28;20461;-60
2024/03/06 03:28:56;;;;;;;3.85;3.08;;;;;21.90;100738.00;;;;2055159;28;20265;-60
2024/03/06 03:29:57;;;;;;;4.80;3.27;;;;;21.40;100733.00;;;;2053648;28;20327;-60
2024/03/06 03:30:58;;;;;;;4.00;3.07;;;;;21.80;100731.00;;;;2050148;28;21595;-60
2024/03/06 03:31:59;;;;;;;4.65;3.30;;;;;21.80;100731.00;;;;2043103;28;20275;-61
2024/03/06 03:32:59;;;;;;;4.40;3.23;;;;;21.90;100733.00;;;;2044731;28;20227;-59
2024/03/06 03:34:00;;;;;;;6.37;3.37;;;;;21.80;100729.00;;;;2051940;28;20255;-60
2024/03/06 03:35:00;;;;;;;3.93;2.80;;;;;21.80;100730.00;;;;2057403;28;20215;-59
2024/03/06 03:36:01;;;;;;;4.07;2.90;;;;;21.80;100736.00;;;;2068395;28;20241;-60
2024/03/06 03:37:02;;;;;;;4.70;3.40;;;;;20.90;100742.00;;;;2059579;28;20272;-60
2024/03/06 03:38:04;;;;;;;4.97;3.43;;;;;21.80;100730.00;;;;2049888;28;20470;-60
2024/03/06 03:39:04;;;;;;;6.30;3.10;;;;;21.80;100739.00;;;;2047640;28;20540;-59
2024/03/06 03:40:06;;;;;;;3.63;2.73;;;;;21.80;100738.00;;;;2066648;28;21125;-60
2024/03/06 03:41:16;;;;;;;4.65;3.00;;;;;21.80;100745.00;;;;2060232;28;20218;-59
2024/03/06 03:42:17;;;;;;;3.65;2.75;;;;;21.80;100738.00;;;;2051481;28;20222;-59
2024/03/06 03:43:17;;;;;;;4.37;3.20;;;;;21.80;100757.00;;;;2051531;28;20239;-59
2024/03/06 03:44:20;;;;;;;3.83;2.70;;;;;21.70;100743.00;;;;2034137;28;20279;-60
2024/03/06 03:45:21;;;;;;;4.00;3.00;;;;;21.70;100743.00;;;;2038342;28;20294;-60
2024/03/06 03:46:24;;;;;;;4.00;2.67;;;;;21.70;100739.00;;;;2045191;28;20220;-61
2024/03/06 03:47:25;;;;;;;4.18;3.00;;;;;21.70;100741.00;;;;2043705;28;20749;-59
2024/03/06 03:48:25;;;;;;;3.83;2.83;;;;;21.70;100749.00;;;;2042011;28;20228;-62
2024/03/06 03:49:25;;;;;;;3.73;2.63;;;;;21.80;100774.00;;;;2046716;28;20696;-60
2024/03/06 03:50:26;;;;;;;4.30;3.23;;;;;21.80;100738.00;;;;2060942;28;20683;-60
2024/03/06 03:51:26;;;;;;;3.60;2.83;;;;;21.80;100745.00;;;;2056898;28;20274;-60
2024/03/06 03:52:27;;;;;;;4.73;3.30;;;;;21.80;100744.00;;;;2055596;28;20219;-60
2024/03/06 03:53:27;;;;;;;3.73;2.80;;;;;21.80;100752.00;;;;2052646;28;20223;-59
2024/03/06 03:54:27;;;;;;;3.47;2.60;;;;;21.80;100755.00;;;;2038200;28;20315;-59
2024/03/06 03:55:28;;;;;;;3.53;2.90;;;;;21.80;100754.00;;;;2050166;28;20275;-59
2024/03/06 03:56:28;;;;;;;3.70;2.63;;;;;21.70;100748.00;;;;2044011;28;20554;-63
2024/03/06 03:57:30;;;;;;;3.43;2.40;;;;;21.70;100746.00;;;;2051934;28;20223;-64
2024/03/06 03:58:30;;;;;;;3.88;2.72;;;;;21.70;100742.00;;;;2048497;28;20219;-60
2024/03/06 03:59:32;;;;;;;3.93;3.13;;;;;21.70;100754.00;;;;2048925;28;20789;-60
2024/03/06 04:00:33;;;;;;;3.67;2.50;;;;;21.70;100750.00;;;;2044851;28;20324;-60
2024/03/06 04:01:34;;;;;;;3.20;2.30;;;;;21.80;100760.00;;;;2049628;28;20236;-60
2024/03/06 04:02:35;;;;;;;3.50;2.73;;;;;21.80;100757.00;;;;2063145;28;20215;-61
2024/03/06 04:03:36;;;;;;;3.80;2.77;;;;;21.80;100796.00;;;;2051880;28;20207;-60
2024/03/06 04:04:36;;;;;;;3.65;2.72;;;;;21.70;100759.00;;;;2061084;28;20459;-61
2024/03/06 04:05:37;;;;;;;4.03;2.70;;;;;21.70;100747.00;;;;2051476;28;20665;-59
2024/03/06 04:06:37;;;;;;;3.50;2.40;;;;;21.70;100757.00;;;;2036392;28;21567;-59
2024/03/06 04:07:37;;;;;;;3.50;2.70;;;;;21.70;100759.00;;;;2043354;28;20224;-61
2024/03/06 04:08:38;;;;;;;3.40;2.60;;;;;21.70;100761.00;;;;2043444;28;20215;-60
2024/03/06 04:09:38;;;;;;;3.60;2.47;;;;;21.70;100763.00;;;;2054979;28;20219;-60
2024/03/06 04:10:39;;;;;;;3.47;2.33;;;;;21.70;100772.00;;;;2060520;28;20752;-60
2024/03/06 04:11:39;;;;;;;3.50;2.47;;;;;21.70;100766.00;;;;2065237;28;20501;-60
2024/03/06 04:12:39;;;;;;;4.20;2.73;;;;;21.70;100768.00;;;;2061752;28;20210;-59
2024/03/06 04:13:40;;;;;;;3.97;2.70;;;;;21.70;100768.00;;;;2056810;28;20861;-59
2024/03/06 04:14:41;;;;;;;3.57;2.60;;;;;21.70;100785.00;;;;2062944;28;20310;-60
2024/03/06 04:15:41;;;;;;;4.23;2.70;;;;;21.60;100767.00;;;;2058900;28;20215;-60
2024/03/06 04:16:41;;;;;;;4.00;2.70;;;;;21.70;100762.00;;;;2060994;28;20207;-60
2024/03/06 04:17:42;;;;;;;3.07;2.40;;;;;21.70;100768.00;;;;2056246;28;20216;-60
2024/03/06 04:18:42;;;;;;;4.07;2.80;;;;;21.70;100768.00;;;;2047793;28;20207;-59
2024/03/06 04:19:42;;;;;;;4.67;3.10;;;;;21.70;100775.00;;;;2043439;28;20210;-59
2024/03/06 04:20:43;;;;;;;3.60;2.30;;;;;21.70;100780.00;;;;2044968;28;20290;-59
2024/03/06 04:21:44;;;;;;;3.83;2.47;;;;;21.70;100770.00;;;;2060641;28;20207;-60
2024/03/06 04:22:46;;;;;;;3.67;2.80;;;;;21.60;100774.00;;;;2052664;28;20232;-60
2024/03/06 04:23:47;;;;;;;3.47;2.35;;;;;21.70;100786.00;;;;2044035;28;20565;-60
2024/03/06 04:24:47;;;;;;;3.20;2.40;;;;;21.60;100777.00;;;;2059737;28;20289;-60
2024/03/06 04:25:48;;;;;;;3.97;2.30;;;;;21.70;100777.00;;;;2066496;28;20214;-59
2024/03/06 04:26:48;;;;;;;4.43;2.87;;;;;21.70;100775.00;;;;2052463;28;20456;-60
2024/03/06 04:27:49;;;;;;;4.60;2.90;;;;;21.70;100782.00;;;;2044854;28;20239;-60
2024/03/06 04:28:50;;;;;;;3.80;2.53;;;;;21.70;100782.00;;;;2051322;28;20231;-59
2024/03/06 04:29:51;;;;;;;3.80;2.50;;;;;21.70;100777.00;;;;2061019;28;20226;-59
2024/03/06 04:30:51;;;;;;;3.67;2.53;;;;;21.70;100773.00;;;;2060518;28;20520;-59
2024/03/06 04:31:51;;;;;;;3.40;2.43;;;;;21.70;100793.00;;;;2060652;28;20226;-59
2024/03/06 04:32:52;;;;;;;3.57;2.30;;;;;21.70;100788.00;;;;2059752;28;20223;-60
2024/03/06 04:33:55;;;;;;;3.07;2.13;;;;;21.60;100779.00;;;;2051459;28;20702;-59
2024/03/06 04:34:57;;;;;;;3.92;2.75;;;;;21.60;100797.00;;;;2041733;28;20466;-61
2024/03/06 04:35:57;;;;;;;3.83;2.65;;;;;21.70;100790.00;;;;2053881;28;20259;-60
2024/03/06 04:36:58;;;;;;;3.70;2.57;;;;;21.70;100786.00;;;;2067519;28;20248;-59
2024/03/06 04:38:03;;;;;;;3.30;2.40;;;;;21.60;100784.00;;;;2055466;28;20220;-60
2024/03/06 04:39:07;;;;;;;3.63;2.35;;;;;20.60;100790.00;;;;2025092;28;20233;-59
2024/03/06 04:40:08;;;;;;;3.83;2.45;;;;;21.60;100786.00;;;;2026658;28;20217;-59
2024/03/06 04:41:08;;;;;;;4.03;2.70;;;;;21.70;100784.00;;;;2052671;28;20345;-60
2024/03/06 04:42:12;;;;;;;3.93;2.70;;;;;21.70;100799.00;;;;2051583;28;20922;-60
2024/03/06 04:43:13;;;;;;;5.20;2.90;;;;;21.60;100797.00;;;;2026113;28;20225;-60
2024/03/06 04:44:19;;;;;;;3.23;2.30;;;;;21.70;100728.00;;;;2033999;28;20238;-60
2024/03/06 04:45:20;;;;;;;3.22;2.00;;;;;21.60;100797.00;;;;2048989;28;20821;-60
2024/03/06 04:46:20;;;;;;;3.50;2.37;;;;;21.60;100797.00;;;;2044974;28;20220;-59
2024/03/06 04:47:21;;;;;;;3.30;2.23;;;;;21.60;100784.00;;;;2056732;28;20217;-59
2024/03/06 04:48:21;;;;;;;3.40;2.40;;;;;21.60;100797.00;;;;2052268;28;20215;-60
2024/03/06 04:49:22;;;;;;;5.23;2.70;;;;;21.60;100798.00;;;;2042016;28;20226;-60
2024/03/06 04:50:22;;;;;;;3.70;2.30;;;;;21.60;100800.00;;;;2064261;28;20229;-60
2024/03/06 04:51:22;;;;;;;3.77;2.70;;;;;21.60;100808.00;;;;2060015;28;20281;-60
2024/03/06 04:52:23;;;;;;;3.00;1.90;;;;;21.60;100865.00;;;;2060276;28;20294;-60
2024/03/06 04:53:24;;;;;;;3.00;2.03;;;;;21.60;100797.00;;;;2060990;28;20758;-61
2024/03/06 04:54:24;;;;;;;3.33;2.33;;;;;21.60;100809.00;;;;2041815;28;20211;-59
2024/03/06 04:55:25;;;;;;;3.20;2.40;;;;;21.60;100806.00;;;;2050823;28;20746;-59
2024/03/06 04:56:25;;;;;;;3.17;2.40;;;;;21.60;100835.00;;;;2057961;28;21232;-62
2024/03/06 04:57:26;;;;;;;3.57;2.60;;;;;21.60;100804.00;;;;2059268;28;20323;-61
2024/03/06 04:58:27;;;;;;;3.30;2.45;;;;;21.60;100818.00;;;;2047208;28;20219;-60
2024/03/06 04:59:27;;;;;;;4.00;3.23;;;;;21.60;100866.00;;;;2038274;28;20723;-60